createdAt,value
2018-06-30T00:00:44.814Z,12.61
2018-06-30T00:01:44.716Z,12.88
2018-06-30T00:02:44.710Z,12.74
2018-06-30T00:03:44.678Z,12.81
2018-06-30T00:04:44.695Z,12.85
2018-06-30T00:05:44.680Z,12.88
2018-06-30T00:06:44.792Z,12.83
2018-06-30T00:07:44.857Z,12.63
2018-06-30T00:08:44.669Z,12.74
2018-06-30T00:09:44.665Z,12.6
2018-06-30T00:10:44.643Z,12.55
2018-06-30T00:11:44.642Z,12.7
2018-06-30T00:12:44.844Z,12.73
2018-06-30T00:13:44.656Z,12.69
2018-06-30T00:14:44.737Z,12.61
2018-06-30T00:15:44.658Z,12.54
2018-06-30T00:16:44.656Z,12.8
2018-06-30T00:17:44.790Z,12.83
2018-06-30T00:18:44.639Z,12.7
2018-06-30T00:19:44.660Z,12.6
2018-06-30T00:20:44.642Z,12.72
2018-06-30T00:21:44.653Z,12.68
2018-06-30T00:22:44.631Z,12.58
2018-06-30T00:23:44.650Z,12.88
2018-06-30T00:24:44.631Z,12.86
2018-06-30T00:25:44.667Z,12.78
2018-06-30T00:26:44.647Z,12.75
2018-06-30T00:27:44.638Z,12.72
2018-06-30T00:28:44.640Z,12.67
2018-06-30T00:29:44.647Z,12.62
2018-06-30T00:30:44.641Z,12.82
2018-06-30T00:31:44.635Z,12.87
2018-06-30T00:32:44.657Z,12.65
2018-06-30T00:33:44.691Z,12.77
2018-06-30T00:34:44.785Z,12.64
2018-06-30T00:35:44.655Z,12.63
2018-06-30T00:36:44.672Z,12.79
2018-06-30T00:37:44.652Z,12.74
2018-06-30T00:38:44.631Z,12.74
2018-06-30T00:39:44.659Z,12.54
2018-06-30T00:40:44.656Z,12.69
2018-06-30T00:41:44.675Z,12.71
2018-06-30T00:42:44.725Z,12.76
2018-06-30T00:43:44.666Z,12.74
2018-06-30T00:44:44.695Z,12.68
2018-06-30T00:45:44.682Z,12.54
2018-06-30T00:46:44.666Z,12.76
2018-06-30T00:47:44.707Z,12.84
2018-06-30T00:48:44.696Z,12.79
2018-06-30T00:49:44.655Z,12.82
2018-06-30T00:50:44.876Z,12.71
2018-06-30T00:51:44.649Z,12.78
2018-06-30T00:52:44.670Z,12.54
2018-06-30T00:53:44.797Z,12.83
2018-06-30T00:54:44.637Z,12.78
2018-06-30T00:55:44.680Z,12.79
2018-06-30T00:56:44.677Z,12.61
2018-06-30T00:57:44.626Z,12.78
2018-06-30T00:58:44.621Z,12.73
2018-06-30T00:59:44.625Z,12.77
2018-06-30T01:00:44.708Z,12.75
2018-06-30T01:01:44.638Z,12.82
2018-06-30T01:02:44.712Z,12.83
2018-06-30T01:03:44.692Z,12.67
2018-06-30T01:04:44.640Z,12.56
2018-06-30T01:05:44.642Z,12.8
2018-06-30T01:06:44.900Z,12.8
2018-06-30T01:07:44.665Z,12.74
2018-06-30T01:08:44.662Z,12.77
2018-06-30T01:09:44.640Z,12.76
2018-06-30T01:10:44.648Z,12.73
2018-06-30T01:11:44.672Z,12.72
2018-06-30T01:12:44.741Z,12.67
2018-06-30T01:13:44.862Z,12.73
2018-06-30T01:14:44.735Z,12.73
2018-06-30T01:15:44.631Z,12.76
2018-06-30T01:16:44.721Z,12.79
2018-06-30T01:17:44.667Z,12.73
2018-06-30T01:18:44.656Z,12.65
2018-06-30T01:19:44.765Z,12.69
2018-06-30T01:20:45.150Z,12.61
2018-06-30T01:21:44.647Z,12.72
2018-06-30T01:22:44.630Z,12.49
2018-06-30T01:23:44.658Z,12.58
2018-06-30T01:24:44.630Z,12.63
2018-06-30T01:25:44.644Z,12.6
2018-06-30T01:26:44.649Z,12.45
2018-06-30T01:27:44.627Z,12.47
2018-06-30T01:28:44.631Z,12.61
2018-06-30T01:29:44.639Z,12.51
2018-06-30T01:30:44.641Z,12.68
2018-06-30T01:31:44.643Z,12.65
2018-06-30T01:32:44.612Z,12.5
2018-06-30T01:33:44.626Z,12.5
2018-06-30T01:34:44.627Z,12.51
2018-06-30T01:35:44.642Z,12.62
2018-06-30T01:36:44.623Z,12.6
2018-06-30T01:37:44.603Z,12.59
2018-06-30T01:38:44.616Z,12.52
2018-06-30T01:39:44.644Z,12.65
2018-06-30T01:40:44.624Z,12.56
2018-06-30T01:41:44.632Z,12.59
2018-06-30T01:42:44.630Z,12.45
2018-06-30T01:43:44.641Z,12.61
2018-06-30T01:44:44.631Z,12.6
2018-06-30T01:45:44.637Z,12.59
2018-06-30T01:46:44.644Z,12.57
2018-06-30T01:47:44.664Z,12.62
2018-06-30T01:48:44.634Z,12.59
2018-06-30T01:49:44.732Z,12.55
2018-06-30T01:50:44.755Z,12.39
2018-06-30T01:51:44.662Z,12.54
2018-06-30T01:52:44.972Z,12.57
2018-06-30T01:53:44.644Z,12.51
2018-06-30T01:54:45.086Z,12.51
2018-06-30T01:55:44.685Z,12.51
2018-06-30T01:56:44.776Z,12.52
2018-06-30T01:57:44.649Z,12.42
2018-06-30T01:58:44.705Z,12.5
2018-06-30T01:59:44.619Z,12.44
2018-06-30T02:00:44.679Z,12.45
2018-06-30T02:01:44.861Z,12.48
2018-06-30T02:02:44.664Z,12.43
2018-06-30T02:03:44.855Z,12.35
2018-06-30T02:04:44.684Z,12.37
2018-06-30T02:05:44.595Z,12.29
2018-06-30T02:06:44.660Z,12.37
2018-06-30T02:07:44.695Z,12.23
2018-06-30T02:08:44.679Z,12.34
2018-06-30T02:09:44.627Z,12.28
2018-06-30T02:10:44.689Z,12.41
2018-06-30T02:11:44.670Z,12.39
2018-06-30T02:12:44.633Z,12.35
2018-06-30T02:13:44.643Z,12.45
2018-06-30T02:14:44.653Z,12.35
2018-06-30T02:15:44.618Z,12.32
2018-06-30T02:16:44.734Z,12.33
2018-06-30T02:17:44.622Z,12.23
2018-06-30T02:18:44.634Z,12.36
2018-06-30T02:19:44.693Z,12.29
2018-06-30T02:20:44.661Z,12.23
2018-06-30T02:21:45.268Z,12.35
2018-06-30T02:22:44.673Z,12.42
2018-06-30T02:23:44.638Z,12.43
2018-06-30T02:24:44.651Z,12.28
2018-06-30T02:25:44.719Z,12.43
2018-06-30T02:26:44.734Z,12.4
2018-06-30T02:27:44.706Z,12.4
2018-06-30T02:28:44.632Z,12.32
2018-06-30T02:29:44.650Z,12.35
2018-06-30T02:30:44.619Z,12.44
2018-06-30T02:31:44.629Z,12.42
2018-06-30T02:32:44.800Z,12.34
2018-06-30T02:33:44.674Z,12.38
2018-06-30T02:34:44.654Z,12.24
2018-06-30T02:35:44.679Z,12.42
2018-06-30T02:36:44.688Z,12.42
2018-06-30T02:37:44.654Z,12.28
2018-06-30T02:38:44.683Z,12.33
2018-06-30T02:39:44.619Z,12.35
2018-06-30T02:40:44.692Z,12.4
2018-06-30T02:41:44.639Z,12.33
2018-06-30T02:42:44.597Z,12.38
2018-06-30T02:43:44.641Z,12.35
2018-06-30T02:44:44.620Z,12.32
2018-06-30T02:45:44.632Z,12.36
2018-06-30T02:46:44.632Z,12.3
2018-06-30T02:47:44.598Z,12.31
2018-06-30T02:48:44.650Z,12.22
2018-06-30T02:49:44.628Z,12.31
2018-06-30T02:50:44.659Z,12.33
2018-06-30T02:51:44.808Z,12.44
2018-06-30T02:52:44.643Z,12.41
2018-06-30T02:53:44.743Z,12.38
2018-06-30T02:54:44.648Z,12.41
2018-06-30T02:55:44.662Z,12.39
2018-06-30T02:56:44.634Z,12.38
2018-06-30T02:57:44.666Z,12.21
2018-06-30T02:58:44.817Z,12.19
2018-06-30T02:59:44.633Z,12.39
2018-06-30T03:00:44.590Z,12.34
2018-06-30T03:01:44.631Z,12.33
2018-06-30T03:02:44.642Z,12.33
2018-06-30T03:03:44.659Z,12.33
2018-06-30T03:04:44.646Z,12.34
2018-06-30T03:05:44.657Z,12.31
2018-06-30T03:06:44.662Z,12.19
2018-06-30T03:07:44.686Z,12.37
2018-06-30T03:08:44.640Z,12.32
2018-06-30T03:09:44.666Z,12.33
2018-06-30T03:10:44.620Z,12.18
2018-06-30T03:11:44.634Z,12.21
2018-06-30T03:12:44.638Z,12.38
2018-06-30T03:13:44.654Z,12.34
2018-06-30T03:14:44.627Z,12.34
2018-06-30T03:15:44.671Z,12.26
2018-06-30T03:16:44.620Z,12.27
2018-06-30T03:17:44.812Z,12.29
2018-06-30T03:18:44.801Z,12.23
2018-06-30T03:19:44.669Z,12.2
2018-06-30T03:20:44.660Z,12.26
2018-06-30T03:21:44.665Z,12.17
2018-06-30T03:22:44.619Z,12.2
2018-06-30T03:23:44.626Z,12.3
2018-06-30T03:24:44.623Z,12.31
2018-06-30T03:25:44.671Z,12.31
2018-06-30T03:26:44.751Z,12.35
2018-06-30T03:27:44.751Z,12.32
2018-06-30T03:28:44.713Z,12.22
2018-06-30T03:29:44.609Z,12.21
2018-06-30T03:30:44.614Z,12.16
2018-06-30T03:31:45.851Z,12.31
2018-06-30T03:32:44.625Z,12.26
2018-06-30T03:33:44.582Z,12.2
2018-06-30T03:34:44.630Z,12.21
2018-06-30T03:35:44.768Z,12.12
2018-06-30T03:36:44.638Z,12.25
2018-06-30T03:37:44.688Z,12.29
2018-06-30T03:38:44.603Z,12.32
2018-06-30T03:39:44.660Z,12.28
2018-06-30T03:40:44.677Z,12.27
2018-06-30T03:41:45.055Z,12.17
2018-06-30T03:42:44.585Z,12.18
2018-06-30T03:43:44.596Z,12.2
2018-06-30T03:44:44.597Z,12.18
2018-06-30T03:45:44.638Z,12.01
2018-06-30T03:46:44.620Z,12.02
2018-06-30T03:47:44.612Z,12.07
2018-06-30T03:48:44.619Z,12.06
2018-06-30T03:49:44.598Z,12.21
2018-06-30T03:50:44.582Z,12.18
2018-06-30T03:51:44.619Z,12.18
2018-06-30T03:52:44.646Z,12.25
2018-06-30T03:53:44.597Z,12.25
2018-06-30T03:54:44.570Z,12.25
2018-06-30T03:55:44.610Z,12.22
2018-06-30T03:56:44.630Z,12.24
2018-06-30T03:57:44.618Z,12.08
2018-06-30T03:58:44.585Z,12.11
2018-06-30T03:59:44.594Z,12.07
2018-06-30T04:00:44.697Z,12.22
2018-06-30T04:01:44.601Z,12.24
2018-06-30T04:02:44.625Z,12.16
2018-06-30T04:03:45.085Z,12.26
2018-06-30T04:04:44.595Z,12.23
2018-06-30T04:05:44.619Z,12.22
2018-06-30T04:06:44.584Z,12.25
2018-06-30T04:07:44.654Z,12.21
2018-06-30T04:08:44.620Z,12.3
2018-06-30T04:09:44.592Z,12.27
2018-06-30T04:10:44.654Z,12.27
2018-06-30T04:11:44.584Z,12.32
2018-06-30T04:12:44.590Z,12.28
2018-06-30T04:13:45.110Z,12.15
2018-06-30T04:14:44.768Z,12.09
2018-06-30T04:15:44.748Z,12.26
2018-06-30T04:16:44.618Z,12.19
2018-06-30T04:17:44.784Z,12.18
2018-06-30T04:18:44.631Z,12.22
2018-06-30T04:19:44.615Z,12.21
2018-06-30T04:20:44.622Z,12.24
2018-06-30T04:21:44.572Z,12.26
2018-06-30T04:22:44.721Z,12.3
2018-06-30T04:23:44.579Z,12.22
2018-06-30T04:24:44.628Z,12.18
2018-06-30T04:25:45.079Z,12.2
2018-06-30T04:26:44.653Z,12.17
2018-06-30T04:27:44.557Z,12.38
2018-06-30T04:28:44.573Z,12.3
2018-06-30T04:29:44.606Z,12.38
2018-06-30T04:30:44.617Z,12.31
2018-06-30T04:31:44.632Z,12.2
2018-06-30T04:32:44.559Z,12.31
2018-06-30T04:33:44.618Z,12.37
2018-06-30T04:34:44.708Z,12.31
2018-06-30T04:35:44.630Z,12.23
2018-06-30T04:36:44.614Z,12.15
2018-06-30T04:37:44.550Z,12.12
2018-06-30T04:38:44.608Z,12.11
2018-06-30T04:39:44.575Z,12.2
2018-06-30T04:40:44.552Z,12.29
2018-06-30T04:41:44.579Z,12.24
2018-06-30T04:42:44.620Z,12.36
2018-06-30T04:43:44.627Z,12.24
2018-06-30T04:44:44.562Z,12.16
2018-06-30T04:45:44.566Z,12.44
2018-06-30T04:46:44.592Z,12.37
2018-06-30T04:47:44.658Z,12.32
2018-06-30T04:48:44.654Z,12.37
2018-06-30T04:49:44.704Z,12.42
2018-06-30T04:50:44.582Z,12.41
2018-06-30T04:51:44.559Z,12.41
2018-06-30T04:52:44.566Z,12.37
2018-06-30T04:53:44.571Z,12.33
2018-06-30T04:54:44.574Z,12.35
2018-06-30T04:55:44.584Z,12.24
2018-06-30T04:56:44.615Z,12.24
2018-06-30T04:57:44.688Z,12.23
2018-06-30T04:58:44.559Z,12.2
2018-06-30T04:59:44.612Z,12.3
2018-06-30T05:00:44.580Z,12.23
2018-06-30T05:01:44.628Z,12.23
2018-06-30T05:02:44.648Z,12.3
2018-06-30T05:03:45.271Z,12.31
2018-06-30T05:04:44.561Z,12.21
2018-06-30T05:05:45.243Z,12.19
2018-06-30T05:06:44.840Z,12.19
2018-06-30T05:07:45.280Z,12.25
2018-06-30T05:08:45.261Z,12.19
2018-06-30T05:09:44.569Z,12.18
2018-06-30T05:10:44.564Z,12.21
2018-06-30T05:11:45.237Z,12.12
2018-06-30T05:12:45.655Z,12.13
2018-06-30T05:13:45.311Z,11.84
2018-06-30T05:14:45.249Z,11.73
2018-06-30T05:15:44.551Z,11.69
2018-06-30T05:16:45.243Z,11.65
2018-06-30T05:17:45.662Z,11.5
2018-06-30T05:18:45.256Z,11.62
2018-06-30T05:19:45.283Z,11.58
2018-06-30T05:20:44.554Z,11.46
2018-06-30T05:21:45.276Z,11.46
2018-06-30T05:22:44.602Z,11.5
2018-06-30T05:23:44.577Z,11.57
2018-06-30T05:24:45.378Z,11.59
2018-06-30T05:25:44.565Z,11.54
2018-06-30T05:26:44.547Z,11.55
2018-06-30T05:27:44.577Z,11.58
2018-06-30T05:28:44.604Z,11.6
2018-06-30T05:29:45.292Z,11.59
2018-06-30T05:30:44.584Z,11.66
2018-06-30T05:31:44.541Z,11.62
2018-06-30T05:32:44.563Z,11.34
2018-06-30T05:33:46.101Z,11.31
2018-06-30T05:34:44.575Z,11.36
2018-06-30T05:35:44.578Z,11.2
2018-06-30T05:36:44.590Z,11.18
2018-06-30T05:37:45.349Z,11.11
2018-06-30T05:38:44.543Z,11.19
2018-06-30T05:39:44.610Z,11.18
2018-06-30T05:40:45.264Z,11.21
2018-06-30T05:41:45.743Z,11.24
2018-06-30T05:42:44.616Z,11.25
2018-06-30T05:43:45.326Z,11.21
2018-06-30T05:44:44.546Z,11.27
2018-06-30T05:45:45.316Z,11.27
2018-06-30T05:46:46.065Z,11.33
2018-06-30T05:47:44.548Z,11.35
2018-06-30T05:48:44.545Z,11.4
2018-06-30T05:49:44.560Z,11.39
2018-06-30T05:50:44.542Z,11.38
2018-06-30T05:51:45.335Z,11.51
2018-06-30T05:52:44.535Z,11.46
2018-06-30T05:53:44.591Z,11.36
2018-06-30T05:54:44.578Z,11.21
2018-06-30T05:55:44.538Z,11.26
2018-06-30T05:56:44.545Z,11.31
2018-06-30T05:57:44.629Z,11.34
2018-06-30T05:58:44.576Z,11.34
2018-06-30T05:59:44.543Z,11.39
2018-06-30T06:00:44.534Z,11.38
2018-06-30T06:01:45.298Z,11.37
2018-06-30T06:02:44.548Z,11.36
2018-06-30T06:03:44.685Z,11.39
2018-06-30T06:04:44.551Z,11.47
2018-06-30T06:05:44.533Z,11.47
2018-06-30T06:06:44.560Z,11.49
2018-06-30T06:07:44.567Z,11.45
2018-06-30T06:08:44.540Z,11.46
2018-06-30T06:09:45.253Z,11.45
2018-06-30T06:10:44.595Z,11.42
2018-06-30T06:11:44.577Z,11.45
2018-06-30T06:12:44.886Z,11.46
2018-06-30T06:13:44.559Z,11.38
2018-06-30T06:14:44.608Z,11.48
2018-06-30T06:15:44.593Z,11.47
2018-06-30T06:16:44.599Z,11.5
2018-06-30T06:17:44.755Z,11.51
2018-06-30T06:18:44.558Z,11.49
2018-06-30T06:19:44.694Z,11.41
2018-06-30T06:20:44.565Z,11.29
2018-06-30T06:21:44.589Z,11.36
2018-06-30T06:22:44.718Z,11.39
2018-06-30T06:23:44.585Z,11.28
2018-06-30T06:24:44.629Z,11.36
2018-06-30T06:25:44.579Z,11.44
2018-06-30T06:26:44.617Z,11.51
2018-06-30T06:27:44.855Z,11.49
2018-06-30T06:28:44.732Z,11.57
2018-06-30T06:29:44.695Z,11.52
2018-06-30T06:30:44.665Z,11.44
2018-06-30T06:31:44.701Z,11.41
2018-06-30T06:32:45.120Z,11.36
2018-06-30T06:33:45.263Z,11.36
2018-06-30T06:34:45.234Z,11.36
2018-06-30T06:35:45.313Z,11.41
2018-06-30T06:36:45.536Z,11.34
2018-06-30T06:37:45.383Z,11.41
2018-06-30T06:38:45.275Z,11.43
2018-06-30T06:39:45.556Z,11.46
2018-06-30T06:40:45.338Z,11.55
2018-06-30T06:41:45.630Z,11.56
2018-06-30T06:42:45.354Z,11.64
2018-06-30T06:43:44.697Z,11.67
2018-06-30T06:44:45.314Z,11.72
2018-06-30T06:45:45.262Z,11.75
2018-06-30T06:46:45.363Z,11.75
2018-06-30T06:47:45.339Z,11.75
2018-06-30T06:48:45.285Z,11.51
2018-06-30T06:49:44.630Z,11.47
2018-06-30T06:50:45.277Z,11.52
2018-06-30T06:51:45.260Z,11.4
2018-06-30T06:52:45.437Z,11.42
2018-06-30T06:53:45.311Z,11.51
2018-06-30T06:54:45.280Z,11.46
2018-06-30T06:55:45.302Z,11.56
2018-06-30T06:56:44.610Z,11.39
2018-06-30T06:57:45.368Z,11.38
2018-06-30T06:58:45.280Z,11.43
2018-06-30T06:59:44.616Z,11.42
2018-06-30T07:00:45.369Z,11.5
2018-06-30T07:01:45.375Z,11.54
2018-06-30T07:02:44.705Z,11.53
2018-06-30T07:03:45.240Z,11.94
2018-06-30T07:04:45.235Z,11.87
2018-06-30T07:05:45.288Z,11.73
2018-06-30T07:06:45.416Z,11.49
2018-06-30T07:07:45.267Z,11.6
2018-06-30T07:08:44.508Z,11.56
2018-06-30T07:09:44.499Z,11.58
2018-06-30T07:10:44.507Z,11.46
2018-06-30T07:11:44.518Z,11.44
2018-06-30T07:12:44.703Z,11.43
2018-06-30T07:13:44.706Z,11.43
2018-06-30T07:14:44.496Z,11.32
2018-06-30T07:15:44.585Z,11.32
2018-06-30T07:16:44.520Z,11.34
2018-06-30T07:17:44.559Z,11.36
2018-06-30T07:18:45.370Z,11.16
2018-06-30T07:19:44.529Z,11.2
2018-06-30T07:20:45.217Z,11.24
2018-06-30T07:21:45.223Z,11.26
2018-06-30T07:22:44.582Z,11.31
2018-06-30T07:23:44.516Z,11.36
2018-06-30T07:24:44.538Z,11.34
2018-06-30T07:25:44.512Z,11.3
2018-06-30T07:26:45.242Z,11.27
2018-06-30T07:27:45.309Z,11.29
2018-06-30T07:28:45.377Z,11.3
2018-06-30T07:29:45.376Z,11.36
2018-06-30T07:30:45.666Z,11.47
2018-06-30T07:31:45.275Z,11.35
2018-06-30T07:32:44.542Z,11.4
2018-06-30T07:33:46.273Z,11.45
2018-06-30T07:34:44.527Z,11.38
2018-06-30T07:35:44.544Z,11.34
2018-06-30T07:36:44.504Z,11.36
2018-06-30T07:37:45.343Z,11.29
2018-06-30T07:38:45.279Z,11.34
2018-06-30T07:39:45.454Z,11.41
2018-06-30T07:40:44.506Z,11.42
2018-06-30T07:41:44.537Z,11.38
2018-06-30T07:42:44.527Z,11.39
2018-06-30T07:43:44.850Z,11.39
2018-06-30T07:44:45.248Z,11.51
2018-06-30T07:45:44.550Z,11.41
2018-06-30T07:46:44.563Z,11.44
2018-06-30T07:47:45.405Z,11.42
2018-06-30T07:48:45.246Z,11.51
2018-06-30T07:49:44.582Z,11.49
2018-06-30T07:50:44.548Z,11.54
2018-06-30T07:51:44.557Z,11.45
2018-06-30T07:52:44.525Z,11.42
2018-06-30T07:53:44.504Z,11.48
2018-06-30T07:54:44.509Z,11.56
2018-06-30T07:55:44.532Z,11.53
2018-06-30T07:56:44.557Z,11.72
2018-06-30T07:57:44.534Z,11.61
2018-06-30T07:58:44.557Z,11.69
2018-06-30T07:59:44.567Z,11.73
2018-06-30T08:00:44.541Z,11.81
2018-06-30T08:01:44.531Z,11.75
2018-06-30T08:02:44.539Z,11.74
2018-06-30T08:03:44.578Z,11.47
2018-06-30T08:04:44.743Z,11.3
2018-06-30T08:05:44.553Z,11.36
2018-06-30T08:06:44.546Z,11.47
2018-06-30T08:07:44.522Z,11.48
2018-06-30T08:08:44.542Z,11.43
2018-06-30T08:09:44.522Z,11.47
2018-06-30T08:10:44.706Z,11.37
2018-06-30T08:11:44.522Z,11.56
2018-06-30T08:12:44.552Z,11.62
2018-06-30T08:13:44.700Z,11.59
2018-06-30T08:14:44.536Z,11.63
2018-06-30T08:15:44.581Z,11.55
2018-06-30T08:16:44.657Z,11.58
2018-06-30T08:17:44.671Z,11.67
2018-06-30T08:18:44.604Z,11.48
2018-06-30T08:19:44.614Z,11.63
2018-06-30T08:20:44.527Z,11.58
2018-06-30T08:21:44.787Z,11.55
2018-06-30T08:22:44.596Z,11.5
2018-06-30T08:23:44.562Z,11.49
2018-06-30T08:24:44.520Z,11.62
2018-06-30T08:25:44.542Z,11.53
2018-06-30T08:26:44.543Z,11.43
2018-06-30T08:27:44.612Z,11.55
2018-06-30T08:28:44.564Z,11.58
2018-06-30T08:29:44.607Z,11.73
2018-06-30T08:30:44.620Z,11.74
2018-06-30T08:31:44.543Z,11.85
2018-06-30T08:32:44.526Z,11.92
2018-06-30T08:33:44.813Z,11.8
2018-06-30T08:34:44.599Z,11.8
2018-06-30T08:35:44.551Z,11.83
2018-06-30T08:36:44.598Z,11.81
2018-06-30T08:37:44.665Z,11.9
2018-06-30T08:38:44.539Z,11.84
2018-06-30T08:39:44.561Z,11.86
2018-06-30T08:40:44.582Z,11.83
2018-06-30T08:41:44.666Z,11.57
2018-06-30T08:42:44.551Z,11.51
2018-06-30T08:43:44.619Z,11.52
2018-06-30T08:44:44.679Z,11.63
2018-06-30T08:45:44.542Z,11.67
2018-06-30T08:46:44.657Z,11.67
2018-06-30T08:47:44.644Z,11.67
2018-06-30T08:48:44.625Z,11.53
2018-06-30T08:49:44.676Z,11.73
2018-06-30T08:50:44.646Z,11.7
2018-06-30T08:51:44.655Z,11.77
2018-06-30T08:52:44.639Z,11.8
2018-06-30T08:53:44.776Z,11.6
2018-06-30T08:54:44.663Z,11.76
2018-06-30T08:55:45.998Z,11.79
2018-06-30T08:56:44.694Z,11.98
2018-06-30T08:57:44.803Z,11.6
2018-06-30T08:58:44.744Z,11.6
2018-06-30T08:59:44.816Z,11.59
2018-06-30T09:00:45.116Z,11.87
2018-06-30T09:01:44.673Z,11.81
2018-06-30T09:02:44.721Z,11.78
2018-06-30T09:03:45.711Z,11.99
2018-06-30T09:04:44.770Z,11.76
2018-06-30T09:05:44.716Z,11.76
2018-06-30T09:06:45.154Z,11.76
2018-06-30T09:07:44.823Z,11.82
2018-06-30T09:08:44.760Z,11.73
2018-06-30T09:09:44.623Z,11.54
2018-06-30T09:10:45.343Z,11.6
2018-06-30T09:11:44.580Z,11.62
2018-06-30T09:12:44.685Z,11.64
2018-06-30T09:13:44.664Z,11.68
2018-06-30T09:14:44.661Z,11.81
2018-06-30T09:15:44.660Z,11.72
2018-06-30T09:16:44.651Z,11.62
2018-06-30T09:18:15.495Z,11.61
2018-06-30T09:18:44.647Z,11.77
2018-06-30T09:19:44.672Z,11.74
2018-06-30T09:20:44.652Z,11.76
2018-06-30T09:21:44.601Z,11.81
2018-06-30T09:22:44.630Z,11.68
2018-06-30T09:23:44.617Z,11.68
2018-06-30T09:24:44.602Z,11.65
2018-06-30T09:25:44.653Z,11.65
2018-06-30T09:26:44.676Z,11.72
2018-06-30T09:27:44.641Z,11.66
2018-06-30T09:28:44.683Z,11.82
2018-06-30T09:29:45.284Z,11.78
2018-06-30T09:30:44.644Z,11.74
2018-06-30T09:31:44.626Z,11.81
2018-06-30T09:32:44.675Z,11.9
2018-06-30T09:33:44.617Z,11.74
2018-06-30T09:34:44.654Z,11.72
2018-06-30T09:35:44.649Z,11.7
2018-06-30T09:36:44.628Z,11.72
2018-06-30T09:37:44.623Z,11.71
2018-06-30T09:38:44.684Z,11.76
2018-06-30T09:39:44.647Z,11.69
2018-06-30T09:40:44.716Z,11.8
2018-06-30T09:41:44.752Z,11.68
2018-06-30T09:42:44.727Z,11.74
2018-06-30T09:43:44.677Z,11.79
2018-06-30T09:44:45.482Z,11.66
2018-06-30T09:45:44.637Z,11.72
2018-06-30T09:46:44.937Z,11.74
2018-06-30T09:47:44.784Z,11.7
2018-06-30T09:48:44.790Z,11.62
2018-06-30T09:49:44.832Z,11.05
2018-06-30T09:50:44.839Z,11.26
2018-06-30T09:51:45.068Z,11.59
2018-06-30T09:52:44.773Z,11.48
2018-06-30T09:53:44.721Z,11.65
2018-06-30T09:54:44.827Z,11.7
2018-06-30T09:55:44.934Z,11.79
2018-06-30T09:56:46.196Z,11.81
2018-06-30T09:57:44.863Z,11.8
2018-06-30T09:58:44.866Z,11.85
2018-06-30T09:59:44.803Z,11.88
2018-06-30T10:00:44.907Z,11.92
2018-06-30T10:01:44.890Z,11.77
2018-06-30T10:02:44.908Z,11.81
2018-06-30T10:03:44.891Z,11.78
2018-06-30T10:04:44.907Z,11.72
2018-06-30T10:05:44.935Z,11.61
2018-06-30T10:06:45.298Z,11.54
2018-06-30T10:07:44.931Z,11.58
2018-06-30T10:08:44.923Z,11.63
2018-06-30T10:09:44.816Z,11.84
2018-06-30T10:10:44.929Z,11.9
2018-06-30T10:11:44.866Z,11.74
2018-06-30T10:12:44.985Z,11.66
2018-06-30T10:13:44.970Z,11.58
2018-06-30T10:14:45.152Z,11.78
2018-06-30T10:15:44.985Z,11.68
2018-06-30T10:16:44.963Z,11.61
2018-06-30T10:17:44.970Z,11.53
2018-06-30T10:18:45.007Z,11.61
2018-06-30T10:19:45.003Z,11.76
2018-06-30T10:20:45.290Z,11.69
2018-06-30T10:21:44.835Z,11.69
2018-06-30T10:22:45.188Z,11.74
2018-06-30T10:23:45.025Z,11.64
2018-06-30T10:24:44.981Z,11.71
2018-06-30T10:25:47.019Z,11.74
2018-06-30T10:26:44.929Z,11.73
2018-06-30T10:27:44.933Z,11.57
2018-06-30T10:28:45.044Z,11.65
2018-06-30T10:29:45.090Z,11.74
2018-06-30T10:30:44.883Z,11.68
2018-06-30T10:31:44.890Z,11.77
2018-06-30T10:32:44.898Z,11.61
2018-06-30T10:33:44.716Z,11.77
2018-06-30T10:34:44.715Z,11.72
2018-06-30T10:35:44.760Z,11.75
2018-06-30T10:36:44.729Z,11.82
2018-06-30T10:37:45.609Z,11.73
2018-06-30T10:38:44.784Z,11.68
2018-06-30T10:39:45.109Z,11.68
2018-06-30T10:40:44.982Z,11.72
2018-06-30T10:41:44.795Z,11.94
2018-06-30T10:42:44.966Z,11.77
2018-06-30T10:43:44.973Z,11.67
2018-06-30T10:44:45.228Z,11.77
2018-06-30T10:45:45.083Z,11.76
2018-06-30T10:46:44.993Z,11.73
2018-06-30T10:47:44.844Z,11.72
2018-06-30T10:48:44.780Z,11.59
2018-06-30T10:49:44.853Z,11.83
2018-06-30T10:50:45.128Z,11.51
2018-06-30T10:51:45.118Z,11.73
2018-06-30T10:52:45.125Z,11.76
2018-06-30T10:53:44.767Z,11.73
2018-06-30T10:54:44.888Z,11.7
2018-06-30T10:55:45.889Z,11.76
2018-06-30T10:56:44.781Z,11.81
2018-06-30T10:57:44.759Z,11.85
2018-06-30T10:58:45.167Z,11.87
2018-06-30T10:59:44.895Z,11.72
2018-06-30T11:00:44.824Z,11.93
2018-06-30T11:01:45.194Z,12.02
2018-06-30T11:02:45.120Z,11.94
2018-06-30T11:03:45.145Z,11.92
2018-06-30T11:04:44.883Z,11.79
2018-06-30T11:05:45.235Z,11.93
2018-06-30T11:06:44.804Z,11.91
2018-06-30T11:07:45.298Z,11.83
2018-06-30T11:08:45.238Z,11.96
2018-06-30T11:09:44.825Z,12.05
2018-06-30T11:10:44.908Z,11.99
2018-06-30T11:11:44.861Z,12.01
2018-06-30T11:12:45.683Z,11.83
2018-06-30T11:13:44.942Z,11.99
2018-06-30T11:14:44.854Z,11.96
2018-06-30T11:15:44.849Z,11.96
2018-06-30T11:16:44.858Z,11.9
2018-06-30T11:17:44.913Z,11.77
2018-06-30T11:18:44.847Z,11.71
2018-06-30T11:19:44.987Z,11.93
2018-06-30T11:20:44.783Z,11.8
2018-06-30T11:21:44.764Z,11.71
2018-06-30T11:22:44.981Z,11.6
2018-06-30T11:23:45.021Z,11.71
2018-06-30T11:24:44.948Z,11.67
2018-06-30T11:25:44.940Z,11.67
2018-06-30T11:26:44.832Z,11.64
2018-06-30T11:27:44.896Z,11.69
2018-06-30T11:28:44.932Z,11.8
2018-06-30T11:29:44.952Z,11.62
2018-06-30T11:30:44.827Z,11.56
2018-06-30T11:31:44.853Z,11.87
2018-06-30T11:32:44.850Z,11.66
2018-06-30T11:33:44.880Z,11.81
2018-06-30T11:34:44.813Z,11.64
2018-06-30T11:35:44.796Z,11.51
2018-06-30T11:36:44.782Z,11.52
2018-06-30T11:37:44.854Z,11.63
2018-06-30T11:38:44.815Z,11.66
2018-06-30T11:39:44.771Z,11.7
2018-06-30T11:40:45.879Z,11.67
2018-06-30T11:41:44.975Z,11.65
2018-06-30T11:42:44.791Z,11.57
2018-06-30T11:43:44.975Z,11.64
2018-06-30T11:44:44.796Z,11.65
2018-06-30T11:45:44.804Z,11.67
2018-06-30T11:46:44.958Z,11.65
2018-06-30T11:47:44.953Z,11.74
2018-06-30T11:48:44.842Z,11.68
2018-06-30T11:49:44.802Z,11.56
2018-06-30T11:50:44.882Z,11.74
2018-06-30T11:51:44.847Z,11.87
2018-06-30T11:52:44.872Z,11.7
2018-06-30T11:53:44.907Z,11.57
2018-06-30T11:54:44.872Z,11.44
2018-06-30T11:55:44.946Z,11.62
2018-06-30T11:56:44.993Z,11.86
2018-06-30T11:57:44.971Z,11.83
2018-06-30T11:58:45.087Z,11.9
2018-06-30T11:59:44.953Z,11.72
2018-06-30T12:00:44.816Z,11.8
2018-06-30T12:01:46.915Z,11.81
2018-06-30T12:02:44.966Z,11.77
2018-06-30T12:03:44.835Z,11.68
2018-06-30T12:04:44.915Z,11.76
2018-06-30T12:05:44.865Z,11.62
2018-06-30T12:06:44.893Z,11.71
2018-06-30T12:07:45.050Z,11.55
2018-06-30T12:08:44.924Z,11.59
2018-06-30T12:09:44.962Z,11.52
2018-06-30T12:10:45.057Z,11.43
2018-06-30T12:11:44.970Z,11.6
2018-06-30T12:12:44.964Z,11.76
2018-06-30T12:13:44.940Z,11.84
2018-06-30T12:14:44.858Z,11.72
2018-06-30T12:15:44.865Z,11.52
2018-06-30T12:16:45.101Z,11.61
2018-06-30T12:17:44.995Z,11.85
2018-06-30T12:18:44.861Z,11.75
2018-06-30T12:19:44.990Z,11.78
2018-06-30T12:20:44.933Z,11.71
2018-06-30T12:21:45.050Z,11.73
2018-06-30T12:22:45.271Z,11.61
2018-06-30T12:23:44.906Z,11.77
2018-06-30T12:24:44.866Z,11.65
2018-06-30T12:25:45.337Z,11.75
2018-06-30T12:26:45.091Z,11.73
2018-06-30T12:27:44.948Z,11.68
2018-06-30T12:28:45.550Z,11.66
2018-06-30T12:29:44.871Z,11.55
2018-06-30T12:30:44.937Z,11.74
2018-06-30T12:31:45.052Z,11.6
2018-06-30T12:32:44.872Z,11.87
2018-06-30T12:33:44.916Z,11.87
2018-06-30T12:34:44.913Z,11.98
2018-06-30T12:35:44.866Z,12.05
2018-06-30T12:36:45.050Z,11.84
2018-06-30T12:37:44.919Z,11.75
2018-06-30T12:38:45.248Z,11.79
2018-06-30T12:39:44.894Z,11.8
2018-06-30T12:40:45.736Z,11.84
2018-06-30T12:41:44.973Z,11.89
2018-06-30T12:42:44.914Z,12
2018-06-30T12:43:45.731Z,12.09
2018-06-30T12:44:44.928Z,12
2018-06-30T12:45:45.149Z,12.27
2018-06-30T12:46:45.682Z,12.02
2018-06-30T12:47:45.088Z,12.1
2018-06-30T12:48:44.983Z,12.1
2018-06-30T12:49:44.904Z,12.24
2018-06-30T12:50:44.908Z,11.95
2018-06-30T12:51:44.910Z,11.78
2018-06-30T12:52:44.867Z,11.84
2018-06-30T12:53:44.886Z,12.01
2018-06-30T12:54:45.551Z,11.82
2018-06-30T12:55:44.983Z,11.82